createdAt,value
2023-03-13T00:02:34.859Z,6.2
2023-03-13T00:07:34.820Z,6.2
2023-03-13T00:12:34.838Z,6.3
2023-03-13T00:17:34.808Z,6.3
2023-03-13T00:22:34.817Z,6.3
2023-03-13T00:27:34.816Z,6.3
2023-03-13T00:32:34.889Z,6.3
2023-03-13T00:37:34.796Z,6.4
2023-03-13T00:42:34.797Z,6.4
2023-03-13T00:47:34.815Z,6.4
2023-03-13T00:52:34.829Z,6.4
2023-03-13T00:57:34.799Z,6.5
2023-03-13T01:02:34.976Z,6.5
2023-03-13T01:07:34.820Z,6.6
2023-03-13T01:12:34.834Z,6.6
2023-03-13T01:17:34.798Z,6.6
2023-03-13T01:22:34.883Z,6.7
2023-03-13T01:27:34.817Z,6.7
2023-03-13T01:32:34.870Z,6.8
2023-03-13T01:37:34.849Z,6.8
2023-03-13T01:42:34.809Z,6.8
2023-03-13T01:47:34.800Z,6.8
2023-03-13T01:52:34.826Z,6.9
2023-03-13T01:57:34.798Z,6.9
2023-03-13T02:02:34.825Z,6.9
2023-03-13T02:07:34.798Z,6.9
2023-03-13T02:12:34.843Z,7
2023-03-13T02:17:34.799Z,7
2023-03-13T02:22:34.791Z,7.1
2023-03-13T02:27:34.784Z,7.1
2023-03-13T02:32:34.849Z,7.1
2023-03-13T02:37:34.790Z,7.1
2023-03-13T02:42:34.783Z,7.1
2023-03-13T02:47:34.814Z,7.2
2023-03-13T02:52:34.813Z,7.2
2023-03-13T02:57:34.866Z,7.3
2023-03-13T03:02:34.782Z,7.3
2023-03-13T03:07:34.789Z,7.3
2023-03-13T03:12:34.814Z,7.3
2023-03-13T03:17:34.776Z,7.3
2023-03-13T03:22:34.772Z,7.4
2023-03-13T03:27:34.799Z,7.4
2023-03-13T03:32:35.076Z,7.4
2023-03-13T03:37:34.776Z,7.4
2023-03-13T03:42:34.775Z,7.4
2023-03-13T03:47:34.928Z,7.5
2023-03-13T03:52:35.009Z,7.5
2023-03-13T03:57:34.769Z,7.5
2023-03-13T04:02:34.837Z,7.6
2023-03-13T04:07:34.781Z,7.6
2023-03-13T04:12:34.808Z,7.6
2023-03-13T04:17:34.769Z,7.6
2023-03-13T04:22:34.765Z,7.6
2023-03-13T04:27:34.780Z,7.7
2023-03-13T04:32:34.875Z,7.7
2023-03-13T04:37:34.768Z,7.8
2023-03-13T04:42:34.776Z,7.8
2023-03-13T04:47:34.776Z,7.8
2023-03-13T04:52:34.888Z,7.8
2023-03-13T04:57:34.763Z,7.8
2023-03-13T05:02:34.769Z,7.8
2023-03-13T05:07:34.762Z,7.9
2023-03-13T05:12:34.794Z,7.9
2023-03-13T05:17:34.782Z,7.9
2023-03-13T05:22:34.761Z,7.9
2023-03-13T05:27:34.765Z,7.9
2023-03-13T05:32:34.923Z,7.9
2023-03-13T05:37:41.147Z,7.9
2023-03-13T05:42:34.770Z,8
2023-03-13T05:47:34.793Z,8
2023-03-13T05:52:34.828Z,8
2023-03-13T05:57:34.794Z,8
2023-03-13T06:02:34.779Z,8.1
2023-03-13T06:07:34.776Z,8.1
2023-03-13T06:12:34.810Z,8.1
2023-03-13T06:17:34.805Z,8.1
2023-03-13T06:22:34.778Z,8.1
2023-03-13T06:27:34.780Z,8.1
2023-03-13T06:32:41.060Z,8.1
2023-03-13T06:37:36.374Z,8.1
2023-03-13T06:42:34.775Z,8.1
2023-03-13T06:47:34.772Z,8.2
2023-03-13T06:52:43.216Z,8.2
2023-03-13T06:57:34.778Z,8.2
2023-03-13T07:02:34.772Z,8.2
2023-03-13T07:07:34.770Z,8.2
2023-03-13T07:12:34.893Z,8.2
2023-03-13T07:17:35.061Z,8.3
2023-03-13T07:22:34.790Z,8.3
2023-03-13T07:27:34.805Z,8.3
2023-03-13T07:32:34.812Z,8.3
2023-03-13T07:37:34.782Z,8.3
2023-03-13T07:42:34.780Z,8.3
2023-03-13T07:47:34.789Z,8.3
2023-03-13T07:52:34.824Z,8.3
2023-03-13T07:57:34.777Z,8.3
2023-03-13T08:02:34.867Z,8.4
2023-03-13T08:07:34.792Z,8.4
2023-03-13T08:12:34.826Z,8.4
2023-03-13T08:17:34.798Z,8.4
2023-03-13T08:22:34.849Z,8.4
2023-03-13T08:27:34.828Z,8.4
2023-03-13T08:32:34.946Z,8.4
2023-03-13T08:37:34.762Z,8.5
2023-03-13T08:42:34.760Z,8.5
2023-03-13T08:47:34.809Z,8.5
2023-03-13T08:52:34.796Z,8.6
2023-03-13T08:57:34.797Z,8.6
2023-03-13T09:02:34.812Z,8.6
2023-03-13T09:07:34.779Z,8.6
2023-03-13T09:12:34.836Z,8.6
2023-03-13T09:17:34.759Z,8.7
2023-03-13T09:22:34.764Z,8.7
2023-03-13T09:27:34.747Z,8.7
2023-03-13T09:32:34.899Z,8.8
2023-03-13T09:37:34.773Z,8.8
2023-03-13T09:42:34.775Z,8.8
2023-03-13T09:47:34.764Z,8.8
2023-03-13T09:52:34.826Z,8.9
2023-03-13T09:57:34.790Z,8.9
2023-03-13T10:02:35.220Z,8.9
2023-03-13T10:07:34.745Z,8.9
2023-03-13T10:12:34.774Z,9
2023-03-13T10:17:35.013Z,9
2023-03-13T10:22:34.759Z,9.1
2023-03-13T10:27:38.981Z,9.1
2023-03-13T10:32:34.732Z,9.1
2023-03-13T10:37:34.732Z,9.2
2023-03-13T10:42:38.809Z,9.2
2023-03-13T10:47:34.753Z,9.3
2023-03-13T10:52:34.729Z,9.3
2023-03-13T10:57:34.789Z,9.4
2023-03-13T11:02:34.847Z,9.4
2023-03-13T11:07:34.818Z,9.5
2023-03-13T11:12:34.920Z,9.6
2023-03-13T11:17:34.781Z,9.6
2023-03-13T11:22:38.824Z,9.7
2023-03-13T11:27:34.812Z,9.8
2023-03-13T11:32:34.813Z,9.9
2023-03-13T11:37:34.798Z,9.9
2023-03-13T11:42:34.806Z,10.1
2023-03-13T11:47:34.790Z,10.1
2023-03-13T11:52:34.791Z,10.2
2023-03-13T11:57:35.415Z,10.3
2023-03-13T12:02:34.964Z,10.4
2023-03-13T12:07:34.779Z,10.5
2023-03-13T12:12:34.770Z,10.6
2023-03-13T12:17:42.908Z,10.7
2023-03-13T12:22:34.766Z,10.8
2023-03-13T12:27:34.831Z,10.8
2023-03-13T12:32:35.872Z,10.9
2023-03-13T12:37:34.822Z,11.1
2023-03-13T12:42:34.794Z,11.1
2023-03-13T12:47:34.791Z,11.3
2023-03-13T12:52:34.981Z,11.3
2023-03-13T12:57:34.892Z,11.4
2023-03-13T13:02:34.841Z,11.5
2023-03-13T13:07:34.794Z,11.6
2023-03-13T13:12:34.786Z,11.8
2023-03-13T13:17:34.836Z,11.9
2023-03-13T13:22:34.880Z,12
2023-03-13T13:27:34.841Z,12.1
2023-03-13T13:32:34.862Z,12.3
2023-03-13T13:37:35.131Z,12.4
2023-03-13T13:42:34.925Z,12.6
2023-03-13T13:47:35.013Z,12.8
2023-03-13T13:52:34.884Z,12.9
2023-03-13T13:57:34.938Z,13.1
2023-03-13T14:02:34.979Z,13.2
2023-03-13T14:07:34.953Z,13.3
2023-03-13T14:12:34.971Z,13.4
2023-03-13T14:17:35.007Z,13.6
2023-03-13T14:22:35.136Z,13.7
2023-03-13T14:27:35.190Z,13.8
2023-03-13T14:32:35.260Z,13.9
2023-03-13T14:37:35.525Z,14
2023-03-13T14:42:35.294Z,14.1
2023-03-13T14:47:35.333Z,14.1
2023-03-13T14:52:35.497Z,14.3
2023-03-13T14:57:35.418Z,14.3
2023-03-13T15:02:35.521Z,14.4
2023-03-13T15:07:35.408Z,14.5
2023-03-13T15:12:35.582Z,14.6
2023-03-13T15:17:35.548Z,14.7
2023-03-13T15:22:35.590Z,14.8
2023-03-13T15:27:35.625Z,14.9
2023-03-13T15:32:35.609Z,15
2023-03-13T15:37:35.597Z,15.1
2023-03-13T15:42:35.584Z,15.2
2023-03-13T15:47:35.568Z,15.3
2023-03-13T15:52:35.590Z,15.3
2023-03-13T15:57:39.938Z,15.3
2023-03-13T16:02:35.632Z,15.4
2023-03-13T16:07:35.634Z,15.4
2023-03-13T16:12:35.609Z,15.4
2023-03-13T16:17:35.625Z,15.4
2023-03-13T16:22:35.636Z,15.4
2023-03-13T16:27:35.767Z,15.4
2023-03-13T16:32:36.021Z,15.4
2023-03-13T16:37:35.934Z,15.4
2023-03-13T16:42:35.925Z,15.4
2023-03-13T16:47:40.484Z,15.4
2023-03-13T16:52:35.993Z,15.4
2023-03-13T16:57:36.037Z,15.4
2023-03-13T17:02:36.095Z,15.4
2023-03-13T17:07:35.966Z,15.4
2023-03-13T17:12:36.068Z,15.4
2023-03-13T17:17:36.344Z,15.4
2023-03-13T17:22:36.088Z,15.4
2023-03-13T17:27:36.014Z,15.3
2023-03-13T17:32:36.128Z,15.3
2023-03-13T17:37:36.076Z,15.3
2023-03-13T17:42:36.062Z,15.3
2023-03-13T17:47:36.062Z,15.3
2023-03-13T17:52:36.320Z,15.3
2023-03-13T17:57:36.180Z,15.3
2023-03-13T18:02:36.170Z,15.2
2023-03-13T18:07:36.217Z,15.2
2023-03-13T18:12:36.214Z,15.2
2023-03-13T18:17:36.217Z,15.1
2023-03-13T18:22:36.242Z,15.1
2023-03-13T18:27:36.226Z,15.1
2023-03-13T18:32:36.310Z,15.1
2023-03-13T18:37:36.356Z,15.1
2023-03-13T18:42:36.279Z,15
2023-03-13T18:47:36.472Z,15
2023-03-13T18:52:36.370Z,15
2023-03-13T18:57:36.408Z,14.9
2023-03-13T19:02:36.504Z,14.9
2023-03-13T19:07:36.462Z,14.9
2023-03-13T19:12:36.532Z,14.9
2023-03-13T19:17:36.542Z,14.8
2023-03-13T19:22:36.529Z,14.8
2023-03-13T19:27:36.516Z,14.8
2023-03-13T19:32:36.650Z,14.8
2023-03-13T19:37:36.680Z,14.8
2023-03-13T19:42:36.618Z,14.8
2023-03-13T19:47:36.605Z,14.8
2023-03-13T19:52:36.696Z,14.7
2023-03-13T19:57:36.792Z,14.7
2023-03-13T20:02:36.735Z,14.7
2023-03-13T20:07:36.675Z,14.7
2023-03-13T20:12:36.701Z,14.6
2023-03-13T20:17:36.708Z,14.6
2023-03-13T20:22:36.800Z,14.6
2023-03-13T20:27:36.850Z,14.6
2023-03-13T20:32:39.429Z,14.6
2023-03-13T20:37:36.911Z,14.6
2023-03-13T20:42:36.898Z,14.5
2023-03-13T20:47:36.907Z,14.5
2023-03-13T20:52:36.994Z,14.5
2023-03-13T20:57:37.142Z,14.5
2023-03-13T21:02:37.070Z,14.4
2023-03-13T21:07:37.107Z,14.4
2023-03-13T21:12:37.300Z,14.4
2023-03-13T21:17:37.333Z,14.4
2023-03-13T21:22:37.315Z,14.4
2023-03-13T21:27:37.096Z,14.4
2023-03-13T21:32:37.125Z,14.4
2023-03-13T21:37:37.136Z,14.3
2023-03-13T21:42:37.100Z,14.3
2023-03-13T21:47:37.244Z,14.3
2023-03-13T21:52:38.398Z,14.3
2023-03-13T21:57:37.108Z,14.3
2023-03-13T22:02:37.111Z,14.3
2023-03-13T22:07:37.179Z,14.3
2023-03-13T22:12:37.099Z,14.2
2023-03-13T22:17:37.117Z,14.2
2023-03-13T22:22:37.118Z,14.2
2023-03-13T22:27:37.078Z,14.1
2023-03-13T22:32:37.138Z,14.1
2023-03-13T22:37:37.117Z,14.1
2023-03-13T22:42:37.083Z,14.1
2023-03-13T22:47:37.070Z,14.1
2023-03-13T22:52:37.096Z,14.1
2023-03-13T22:57:37.094Z,14.1
2023-03-13T23:02:37.080Z,14
2023-03-13T23:07:37.079Z,14
2023-03-13T23:12:37.077Z,14
2023-03-13T23:17:37.098Z,14
2023-03-13T23:22:37.078Z,13.9
2023-03-13T23:27:37.075Z,13.9
2023-03-13T23:32:37.132Z,13.9
2023-03-13T23:37:37.090Z,13.9
2023-03-13T23:42:37.073Z,13.9
2023-03-13T23:47:37.068Z,13.9
2023-03-13T23:52:37.061Z,13.9
2023-03-13T23:57:37.103Z,13.8
